^^

Nearby METAR Reports

 

KBJC - Broomfield/Jeffc, Colorado, USA
Distance from station: ESE 4mi, 6km
Updated: 07/05/2020 11:12 pm
Clear
Clear
 Wind from WNW
Wind: WNW 7 mph , 11 km/h
Temperature: 70°F , 21°C
Dew Point: 46°F , 8°C
Humidity: 43%
Barometer: 1021.3 hPa
Clouds: Clear
Visibility: 10 miles , 16 km
2020/07/06 05:12 KBJC 060512Z AUTO 30006KT 10SM CLR 21/08 A3016 RMK AO2
KBDU - Boulder Muni, Colorado, USA
Distance from station: NNW 8mi, 13km
Updated: 07/05/2020 11:12 pm
Clear
Clear
 Wind from WSW
Wind: WSW 3 mph , 6 km/h
Temperature: 72°F , 22°C
Dew Point: 45°F , 7°C
Humidity: 38%
Barometer: 1020 hPa
Clouds: Clear
Visibility: 10 miles , 16 km
2020/07/06 05:12 KBDU 060512Z AUTO 24003KT 10SM CLR 22/07 A3012 RMK AO2
 
KEIK - Erie Muni, Colorado, USA
Distance from station: NE 8mi, 14km
Updated: 07/05/2020 11:11 pm
Clear
Clear
 Wind from WSW
Wind: WSW 3 mph , 6 km/h
Temperature: 66°F , 19°C
Dew Point: 48°F , 9°C
Humidity: 52%
Barometer: 1021.7 hPa
Clouds: Clear
Visibility: 10 miles , 16 km
2020/07/06 05:11 KEIK 060511Z AUTO 24003KT 10SM CLR 19/09 A3017 RMK AO2 T01880088
KLMO - Longmont/Vbrand, Colorado, USA
Distance from station: N 17mi, 27km
Updated: 07/05/2020 11:15 pm
Clear
Clear
 Wind from W
Wind: W 5 mph , 7 km/h
Temperature: 70°F , 21°C
Dew Point: 50°F , 10°C
Humidity: 50%
Barometer: 1020.3 hPa
Clouds: Clear
Visibility: 7 miles , 11 km
2020/07/06 05:15 KLMO 060515Z AUTO 28004KT 7SM CLR 21/10 A3013 RMK AO2 T02060095
 
KBKF - Buckley Angb/Den, Colorado, USA
Distance from station: ESE 26mi, 42km
Updated: 07/05/2020 10:58 pm
Few Clouds
Few Clouds
 Wind from S
Wind: S 12 mph , 19 km/h
Temperature: 64°F , 18°C
Dew Point: 50°F , 10°C
Humidity: 60%
Barometer: 1021 hPa
Clouds: Few Clouds
Visibility: 10 miles , 16 km
Cloud details: Few Clouds 14000 ft
Few Clouds 20000 ft
2020/07/06 04:58 KBKF 060458Z 17010KT 10SM FEW140 FEW200 18/10 A3015 RMK AO2A SLP134 T01760095
KDEN - Denver (dia), Colorado, USA
Distance from station: E 27mi, 44km
Updated: 07/05/2020 10:53 pm
Few Clouds
Few Clouds
 Wind from SSE
Wind: SSE 12 mph , 19 km/h
Temperature: 64°F , 18°C
Dew Point: 48°F , 9°C
Humidity: 56%
Barometer: 1020.3 hPa
Clouds: Few Clouds
Visibility: 10 miles , 16 km
Cloud details: Few Clouds 15000 ft
Few Clouds 22000 ft
2020/07/06 04:53 KDEN 060453Z 16010KT 10SM FEW150 FEW220 18/09 A3013 RMK AO2 SLP121 T01780089
 
KAPA - Denver/Arapahoe, Colorado, USA
Distance from station: SE 30mi, 48km
Updated: 07/05/2020 10:53 pm
Few Clouds
Few Clouds
 Wind from SE
Wind: SE 8 mph , 13 km/h
Temperature: 64°F , 18°C
Dew Point: 46°F , 8°C
Humidity: 52%
Barometer: 1021.3 hPa
Clouds: Few Clouds
Visibility: 10 miles , 16 km
Cloud details: Few Clouds 20000 ft
2020/07/06 04:53 KAPA 060453Z 14007KT 10SM FEW200 18/08 A3016 RMK AO2 SLP139 T01830078 $
K0CO - Berthoud Pass, Colorado, USA
Distance from station: WSW 33mi, 54km
Updated: 07/05/2020 11:06 pm
Partly cloudy
Partly cloudy
 
Temperature: 45°F , 7°C
Dew Point: 32°F , 0°C
Humidity: 61%
Barometer: 1038.6 hPa
Clouds: Partly cloudy
Visibility: 10 miles , 16 km
Cloud details: Partly cloudy 7500 ft
Partly cloudy 9000 ft
2020/07/06 05:06 K0CO 060506Z AUTO 10SM SCT075 SCT090 07/00 A3067 RMK AO2 TSNO PWINO
 
KFTG - Denver F. Range, Colorado, USA
Distance from station: ESE 34mi, 54km
Updated: 01/29/2020 9:55 pm
NOT Current
Overcast
Overcast
 Wind from W
Wind: W 7 mph , 11 km/h
Temperature: 30°F , -1°C
Wind Chill: 23°F , -5°C
Dew Point: 28°F , -2°C
Humidity: 93%
Barometer: 1017.9 hPa
Clouds: Overcast
Visibility: 10 miles , 16 km
Cloud details: Partly cloudy 1300 ft
Mostly cloudy 2300 ft
Overcast 6000 ft
2020/01/30 04:55 KFTG 300455Z AUTO 26006KT 10SM SCT013 BKN023 OVC060 M01/M02 A3006 RMK AO2 T10111023
KFNL - Ft Collins/Loveland, Colorado, USA
Distance from station: N 37mi, 59km
Updated: 07/05/2020 10:56 pm
Clear
Clear
 Wind from WSW
Wind: WSW 12 mph , 19 km/h
Temperature: 72°F , 22°C
Dew Point: 52°F , 11°C
Humidity: 50%
Barometer: 1019.3 hPa
Clouds: Clear
Visibility: 10 miles , 16 km
2020/07/06 04:56 KFNL 060456Z AUTO 24010KT 10SM CLR 22/11 A3010 RMK AO2 RAB03E13 SLP125 P0000 T02170106
 
KCYS - Cheyenne, Wyoming, USA
Distance from station: NNE 95mi, 153km
Updated: 07/05/2020 10:53 pm
Clear
Clear
 Wind from SSW
Wind: SSW 7 mph , 11 km/h
Temperature: 64°F , 18°C
Dew Point: 43°F , 6°C
Humidity: 46%
Barometer: 1021 hPa
Clouds: Clear
Visibility: 10 miles , 16 km
2020/07/06 04:53 KCYS 060453Z AUTO 20006KT 10SM CLR 18/06 A3015 RMK AO2 SLP114 T01830061
KCPR - Casper, Wyoming, USA
Distance from station: NNW 272mi, 438km
Updated: 07/05/2020 10:53 pm
Clear
Clear
 Wind from NNE
Wind: NNE 13 mph , 20 km/h
Temperature: 63°F , 17°C
Dew Point: 48°F , 9°C
Humidity: 59%
Barometer: 1018.3 hPa
Clouds: Clear
Visibility: 10 miles , 16 km
2020/07/06 04:53 KCPR 060453Z AUTO 03011KT 10SM CLR 17/09 A3007 RMK AO2 SLP117 T01670089
 
KGNB - Granby/Grand Co, Colorado, USA
Distance from station: WNW 42mi, 67km
Updated: 07/05/2020 11:12 pm
Clear
Clear
 Wind from S
Wind: S 6 mph , 9 km/h
Temperature: 55°F , 13°C
Dew Point: 41°F , 5°C
Humidity: 59%
Barometer: 1027.1 hPa
Clouds: Clear
Visibility: 10 miles , 16 km
2020/07/06 05:12 KGNB 060512Z AUTO 18005KT 10SM CLR 13/05 A3033 RMK AO2 T01340051
KGXY - Greeley/Weld, Colorado, USA
Distance from station: NE 44mi, 71km
Updated: 07/05/2020 10:56 pm
Clear
Clear
 Wind from E
Wind: E 5 mph , 7 km/h
Temperature: 72°F , 22°C
Dew Point: 52°F , 11°C
Humidity: 50%
Barometer: 1018.6 hPa
Clouds: Clear
Visibility: 10 miles , 16 km
2020/07/06 04:56 KGXY 060456Z 08004KT 10SM CLR 22/11 A3008 RMK AO2 SLP138 T02220106
 
KMNH - Monument/Elbert, Colorado, USA
Distance from station: SSE 56mi, 90km
Updated: 07/05/2020 11:06 pm
Clear
Clear
 Wind from S
Wind: S 13 mph , 20 km/h
Temperature: 55°F , 13°C
Dew Point: 45°F , 7°C
Humidity: 67%
Barometer: 1025.4 hPa
Clouds: Clear
Visibility: 10 miles , 16 km
2020/07/06 05:06 KMNH 060506Z AUTO 18011KT 10SM CLR 13/07 A3028 RMK AO2